sensor_id;sensor_type;location;lat;lon;timestamp;P1;durP1;ratioP1;P2;durP2;ratioP2
14858;SDS011;7521;51.700;6.874;2023-11-18T00:00:19;52.25;;;25.75;;
14858;SDS011;7521;51.700;6.874;2023-11-18T00:03:25;46.27;;;26.20;;
14858;SDS011;7521;51.700;6.874;2023-11-18T00:06:30;47.95;;;23.75;;
14858;SDS011;7521;51.700;6.874;2023-11-18T00:09:35;52.53;;;25.80;;
14858;SDS011;7521;51.700;6.874;2023-11-18T00:12:41;47.97;;;23.97;;
14858;SDS011;7521;51.700;6.874;2023-11-18T00:15:46;43.73;;;24.10;;
14858;SDS011;7521;51.700;6.874;2023-11-18T00:18:53;49.33;;;24.03;;
14858;SDS011;7521;51.700;6.874;2023-11-18T00:21:58;49.80;;;25.77;;
14858;SDS011;7521;51.700;6.874;2023-11-18T00:25:03;49.65;;;25.58;;
14858;SDS011;7521;51.700;6.874;2023-11-18T00:28:12;53.20;;;26.43;;
14858;SDS011;7521;51.700;6.874;2023-11-18T00:31:18;51.97;;;26.73;;
14858;SDS011;7521;51.700;6.874;2023-11-18T00:34:23;50.72;;;26.52;;
14858;SDS011;7521;51.700;6.874;2023-11-18T00:37:28;53.03;;;27.67;;
14858;SDS011;7521;51.700;6.874;2023-11-18T00:40:33;49.88;;;26.10;;
14858;SDS011;7521;51.700;6.874;2023-11-18T00:43:40;58.27;;;26.23;;
14858;SDS011;7521;51.700;6.874;2023-11-18T00:46:45;50.47;;;25.17;;
14858;SDS011;7521;51.700;6.874;2023-11-18T00:49:50;54.70;;;26.25;;
14858;SDS011;7521;51.700;6.874;2023-11-18T00:52:57;52.67;;;26.87;;
14858;SDS011;7521;51.700;6.874;2023-11-18T00:56:02;52.65;;;25.15;;
14858;SDS011;7521;51.700;6.874;2023-11-18T00:59:12;51.30;;;26.33;;
14858;SDS011;7521;51.700;6.874;2023-11-18T01:02:17;50.58;;;26.08;;
14858;SDS011;7521;51.700;6.874;2023-11-18T01:05:23;56.93;;;27.93;;
14858;SDS011;7521;51.700;6.874;2023-11-18T01:08:28;48.17;;;26.48;;
14858;SDS011;7521;51.700;6.874;2023-11-18T01:11:33;55.85;;;27.33;;
14858;SDS011;7521;51.700;6.874;2023-11-18T01:14:39;56.87;;;28.43;;
14858;SDS011;7521;51.700;6.874;2023-11-18T01:17:46;54.37;;;27.07;;
14858;SDS011;7521;51.700;6.874;2023-11-18T01:20:51;57.90;;;26.30;;
14858;SDS011;7521;51.700;6.874;2023-11-18T01:23:56;57.35;;;28.95;;
14858;SDS011;7521;51.700;6.874;2023-11-18T01:27:01;54.60;;;26.20;;
14858;SDS011;7521;51.700;6.874;2023-11-18T01:30:07;55.23;;;26.53;;
14858;SDS011;7521;51.700;6.874;2023-11-18T01:33:12;63.77;;;28.57;;
14858;SDS011;7521;51.700;6.874;2023-11-18T01:36:19;52.50;;;26.40;;
14858;SDS011;7521;51.700;6.874;2023-11-18T01:39:24;50.08;;;25.63;;
14858;SDS011;7521;51.700;6.874;2023-11-18T01:42:31;53.40;;;25.97;;
14858;SDS011;7521;51.700;6.874;2023-11-18T01:45:36;56.38;;;26.77;;
14858;SDS011;7521;51.700;6.874;2023-11-18T01:48:42;55.27;;;26.53;;
14858;SDS011;7521;51.700;6.874;2023-11-18T01:51:47;49.83;;;25.40;;
14858;SDS011;7521;51.700;6.874;2023-11-18T01:54:52;49.93;;;23.73;;
14858;SDS011;7521;51.700;6.874;2023-11-18T01:58:00;53.33;;;25.93;;
14858;SDS011;7521;51.700;6.874;2023-11-18T02:01:12;49.67;;;24.63;;
14858;SDS011;7521;51.700;6.874;2023-11-18T02:04:21;54.77;;;25.87;;
14858;SDS011;7521;51.700;6.874;2023-11-18T02:07:27;61.10;;;25.98;;
14858;SDS011;7521;51.700;6.874;2023-11-18T02:10:33;53.87;;;26.60;;
14858;SDS011;7521;51.700;6.874;2023-11-18T02:13:40;54.63;;;25.40;;
14858;SDS011;7521;51.700;6.874;2023-11-18T02:16:45;46.47;;;24.57;;
14858;SDS011;7521;51.700;6.874;2023-11-18T02:19:53;48.17;;;23.80;;
14858;SDS011;7521;51.700;6.874;2023-11-18T02:23:00;50.20;;;24.80;;
14858;SDS011;7521;51.700;6.874;2023-11-18T02:26:06;50.37;;;25.47;;
14858;SDS011;7521;51.700;6.874;2023-11-18T02:29:11;51.83;;;24.63;;
14858;SDS011;7521;51.700;6.874;2023-11-18T02:32:25;50.38;;;24.92;;
14858;SDS011;7521;51.700;6.874;2023-11-18T02:35:38;54.23;;;25.83;;
14858;SDS011;7521;51.700;6.874;2023-11-18T02:38:44;43.57;;;23.03;;
14858;SDS011;7521;51.700;6.874;2023-11-18T02:41:51;48.20;;;24.10;;
14858;SDS011;7521;51.700;6.874;2023-11-18T02:44:57;49.07;;;24.23;;
14858;SDS011;7521;51.700;6.874;2023-11-18T02:48:04;46.00;;;23.17;;
14858;SDS011;7521;51.700;6.874;2023-11-18T02:51:11;43.67;;;23.97;;
14858;SDS011;7521;51.700;6.874;2023-11-18T02:54:17;44.67;;;24.43;;
14858;SDS011;7521;51.700;6.874;2023-11-18T02:57:22;39.57;;;21.87;;
14858;SDS011;7521;51.700;6.874;2023-11-18T03:00:28;41.95;;;22.63;;
14858;SDS011;7521;51.700;6.874;2023-11-18T03:03:33;43.33;;;23.17;;
14858;SDS011;7521;51.700;6.874;2023-11-18T03:06:38;42.33;;;22.90;;
14858;SDS011;7521;51.700;6.874;2023-11-18T03:09:45;46.60;;;24.33;;
14858;SDS011;7521;51.700;6.874;2023-11-18T03:12:52;42.40;;;21.80;;
14858;SDS011;7521;51.700;6.874;2023-11-18T03:15:57;40.13;;;22.67;;
14858;SDS011;7521;51.700;6.874;2023-11-18T03:19:02;39.83;;;22.23;;
14858;SDS011;7521;51.700;6.874;2023-11-18T03:22:09;44.40;;;22.60;;
14858;SDS011;7521;51.700;6.874;2023-11-18T03:25:15;41.25;;;22.92;;
14858;SDS011;7521;51.700;6.874;2023-11-18T03:28:20;37.97;;;21.77;;
14858;SDS011;7521;51.700;6.874;2023-11-18T03:31:26;39.10;;;21.10;;
14858;SDS011;7521;51.700;6.874;2023-11-18T03:34:31;38.27;;;21.50;;
14858;SDS011;7521;51.700;6.874;2023-11-18T03:37:40;40.37;;;21.33;;
14858;SDS011;7521;51.700;6.874;2023-11-18T03:40:46;39.03;;;21.37;;
14858;SDS011;7521;51.700;6.874;2023-11-18T03:43:51;36.23;;;19.80;;
14858;SDS011;7521;51.700;6.874;2023-11-18T03:46:56;39.70;;;20.73;;
14858;SDS011;7521;51.700;6.874;2023-11-18T03:50:01;39.10;;;21.50;;
14858;SDS011;7521;51.700;6.874;2023-11-18T03:53:07;36.85;;;20.75;;
14858;SDS011;7521;51.700;6.874;2023-11-18T03:56:16;39.00;;;21.52;;
14858;SDS011;7521;51.700;6.874;2023-11-18T03:59:23;37.60;;;21.23;;
14858;SDS011;7521;51.700;6.874;2023-11-18T04:02:28;40.13;;;20.33;;
14858;SDS011;7521;51.700;6.874;2023-11-18T04:05:34;39.87;;;21.07;;
14858;SDS011;7521;51.700;6.874;2023-11-18T04:08:42;39.37;;;21.13;;
14858;SDS011;7521;51.700;6.874;2023-11-18T04:11:47;41.43;;;20.33;;
14858;SDS011;7521;51.700;6.874;2023-11-18T04:14:52;38.20;;;20.02;;
14858;SDS011;7521;51.700;6.874;2023-11-18T04:17:58;34.57;;;19.13;;
14858;SDS011;7521;51.700;6.874;2023-11-18T04:21:03;41.00;;;20.80;;
14858;SDS011;7521;51.700;6.874;2023-11-18T04:24:08;42.60;;;20.60;;
14858;SDS011;7521;51.700;6.874;2023-11-18T04:27:14;35.73;;;19.97;;
14858;SDS011;7521;51.700;6.874;2023-11-18T04:30:19;35.60;;;19.38;;
14858;SDS011;7521;51.700;6.874;2023-11-18T04:33:26;34.43;;;19.87;;
14858;SDS011;7521;51.700;6.874;2023-11-18T04:36:31;40.20;;;20.63;;
14858;SDS011;7521;51.700;6.874;2023-11-18T04:39:36;39.83;;;21.23;;
14858;SDS011;7521;51.700;6.874;2023-11-18T04:42:42;40.57;;;21.40;;
14858;SDS011;7521;51.700;6.874;2023-11-18T04:45:47;46.70;;;23.13;;
14858;SDS011;7521;51.700;6.874;2023-11-18T04:48:52;43.72;;;22.65;;
14858;SDS011;7521;51.700;6.874;2023-11-18T04:51:59;41.07;;;21.30;;
14858;SDS011;7521;51.700;6.874;2023-11-18T04:55:04;38.85;;;20.73;;
14858;SDS011;7521;51.700;6.874;2023-11-18T04:58:10;40.93;;;21.10;;
14858;SDS011;7521;51.700;6.874;2023-11-18T05:01:15;39.23;;;22.27;;
14858;SDS011;7521;51.700;6.874;2023-11-18T05:04:21;45.53;;;24.17;;
14858;SDS011;7521;51.700;6.874;2023-11-18T05:07:26;47.10;;;26.93;;
14858;SDS011;7521;51.700;6.874;2023-11-18T05:10:35;44.80;;;26.50;;
14858;SDS011;7521;51.700;6.874;2023-11-18T05:13:41;45.33;;;25.43;;
14858;SDS011;7521;51.700;6.874;2023-11-18T05:16:46;42.57;;;23.63;;
14858;SDS011;7521;51.700;6.874;2023-11-18T05:19:52;47.97;;;24.98;;
14858;SDS011;7521;51.700;6.874;2023-11-18T05:22:57;44.93;;;23.97;;
14858;SDS011;7521;51.700;6.874;2023-11-18T05:26:02;41.10;;;22.52;;
14858;SDS011;7521;51.700;6.874;2023-11-18T05:29:10;41.73;;;22.50;;
14858;SDS011;7521;51.700;6.874;2023-11-18T05:32:21;40.40;;;21.23;;
14858;SDS011;7521;51.700;6.874;2023-11-18T05:35:27;35.90;;;20.90;;
14858;SDS011;7521;51.700;6.874;2023-11-18T05:38:33;38.57;;;21.80;;
14858;SDS011;7521;51.700;6.874;2023-11-18T05:41:40;41.37;;;21.57;;
14858;SDS011;7521;51.700;6.874;2023-11-18T05:44:45;38.07;;;21.70;;
14858;SDS011;7521;51.700;6.874;2023-11-18T05:47:51;37.13;;;21.80;;
14858;SDS011;7521;51.700;6.874;2023-11-18T05:50:56;39.65;;;22.05;;
14858;SDS011;7521;51.700;6.874;2023-11-18T05:54:01;36.08;;;21.25;;
14858;SDS011;7521;51.700;6.874;2023-11-18T05:57:06;40.25;;;22.02;;
14858;SDS011;7521;51.700;6.874;2023-11-18T06:00:12;39.40;;;22.17;;
14858;SDS011;7521;51.700;6.874;2023-11-18T06:03:20;36.27;;;21.23;;
14858;SDS011;7521;51.700;6.874;2023-11-18T06:06:25;38.60;;;20.63;;
14858;SDS011;7521;51.700;6.874;2023-11-18T06:09:31;33.03;;;20.17;;
14858;SDS011;7521;51.700;6.874;2023-11-18T06:12:36;38.65;;;20.83;;
14858;SDS011;7521;51.700;6.874;2023-11-18T06:15:44;41.07;;;20.23;;
14858;SDS011;7521;51.700;6.874;2023-11-18T06:18:51;34.85;;;19.38;;
14858;SDS011;7521;51.700;6.874;2023-11-18T06:21:56;38.53;;;20.73;;
14858;SDS011;7521;51.700;6.874;2023-11-18T06:25:01;45.42;;;23.30;;
14858;SDS011;7521;51.700;6.874;2023-11-18T06:28:07;38.90;;;21.67;;
14858;SDS011;7521;51.700;6.874;2023-11-18T06:31:12;34.60;;;20.00;;
14858;SDS011;7521;51.700;6.874;2023-11-18T06:34:19;39.33;;;21.40;;
14858;SDS011;7521;51.700;6.874;2023-11-18T06:37:31;46.33;;;23.20;;
14858;SDS011;7521;51.700;6.874;2023-11-18T06:40:36;55.33;;;31.70;;
14858;SDS011;7521;51.700;6.874;2023-11-18T06:43:42;56.90;;;33.87;;
14858;SDS011;7521;51.700;6.874;2023-11-18T06:46:57;49.73;;;29.13;;
14858;SDS011;7521;51.700;6.874;2023-11-18T06:50:02;46.53;;;25.63;;
14858;SDS011;7521;51.700;6.874;2023-11-18T06:53:07;41.17;;;22.27;;
14858;SDS011;7521;51.700;6.874;2023-11-18T06:56:13;35.43;;;20.80;;
14858;SDS011;7521;51.700;6.874;2023-11-18T06:59:18;37.03;;;21.23;;
14858;SDS011;7521;51.700;6.874;2023-11-18T07:02:23;37.05;;;20.40;;
14858;SDS011;7521;51.700;6.874;2023-11-18T07:05:28;39.03;;;20.38;;
14858;SDS011;7521;51.700;6.874;2023-11-18T07:08:34;42.30;;;21.60;;
14858;SDS011;7521;51.700;6.874;2023-11-18T07:11:40;41.20;;;21.77;;
14858;SDS011;7521;51.700;6.874;2023-11-18T07:14:47;37.67;;;21.17;;
14858;SDS011;7521;51.700;6.874;2023-11-18T07:17:52;36.47;;;20.87;;
14858;SDS011;7521;51.700;6.874;2023-11-18T07:21:01;31.88;;;19.00;;
14858;SDS011;7521;51.700;6.874;2023-11-18T07:24:08;40.13;;;20.73;;
14858;SDS011;7521;51.700;6.874;2023-11-18T07:27:13;36.83;;;20.98;;
14858;SDS011;7521;51.700;6.874;2023-11-18T07:30:18;37.08;;;21.17;;
14858;SDS011;7521;51.700;6.874;2023-11-18T07:33:25;38.57;;;20.60;;
14858;SDS011;7521;51.700;6.874;2023-11-18T07:36:30;36.70;;;21.27;;
14858;SDS011;7521;51.700;6.874;2023-11-18T07:39:35;40.50;;;21.13;;
14858;SDS011;7521;51.700;6.874;2023-11-18T07:42:48;38.63;;;21.80;;
14858;SDS011;7521;51.700;6.874;2023-11-18T07:45:54;38.07;;;20.90;;
14858;SDS011;7521;51.700;6.874;2023-11-18T07:48:59;39.70;;;22.33;;
14858;SDS011;7521;51.700;6.874;2023-11-18T07:52:06;36.13;;;21.17;;
14858;SDS011;7521;51.700;6.874;2023-11-18T07:55:11;41.70;;;22.92;;
14858;SDS011;7521;51.700;6.874;2023-11-18T07:58:18;38.50;;;21.07;;
14858;SDS011;7521;51.700;6.874;2023-11-18T08:01:23;36.97;;;21.23;;
14858;SDS011;7521;51.700;6.874;2023-11-18T08:04:28;34.67;;;20.60;;
14858;SDS011;7521;51.700;6.874;2023-11-18T08:07:34;35.57;;;20.77;;
14858;SDS011;7521;51.700;6.874;2023-11-18T08:10:40;39.17;;;22.67;;
14858;SDS011;7521;51.700;6.874;2023-11-18T08:13:46;40.07;;;22.70;;
14858;SDS011;7521;51.700;6.874;2023-11-18T08:16:52;34.70;;;20.10;;
14858;SDS011;7521;51.700;6.874;2023-11-18T08:19:58;40.50;;;21.47;;
14858;SDS011;7521;51.700;6.874;2023-11-18T08:23:04;34.10;;;20.50;;
14858;SDS011;7521;51.700;6.874;2023-11-18T08:26:11;40.37;;;24.30;;
14858;SDS011;7521;51.700;6.874;2023-11-18T08:29:16;39.00;;;23.63;;
14858;SDS011;7521;51.700;6.874;2023-11-18T08:32:21;40.28;;;23.15;;
14858;SDS011;7521;51.700;6.874;2023-11-18T08:35:27;35.63;;;21.13;;
14858;SDS011;7521;51.700;6.874;2023-11-18T08:38:34;39.30;;;21.50;;
14858;SDS011;7521;51.700;6.874;2023-11-18T08:41:40;36.37;;;22.13;;
14858;SDS011;7521;51.700;6.874;2023-11-18T08:44:46;38.63;;;22.83;;
14858;SDS011;7521;51.700;6.874;2023-11-18T08:47:53;36.03;;;21.90;;
14858;SDS011;7521;51.700;6.874;2023-11-18T08:50:58;35.00;;;21.47;;
14858;SDS011;7521;51.700;6.874;2023-11-18T08:54:05;36.60;;;21.13;;
14858;SDS011;7521;51.700;6.874;2023-11-18T08:57:27;34.13;;;21.13;;
14858;SDS011;7521;51.700;6.874;2023-11-18T09:00:32;30.03;;;19.80;;
14858;SDS011;7521;51.700;6.874;2023-11-18T09:03:49;34.67;;;21.23;;
14858;SDS011;7521;51.700;6.874;2023-11-18T09:06:57;34.10;;;19.80;;
14858;SDS011;7521;51.700;6.874;2023-11-18T09:10:05;31.57;;;20.07;;
14858;SDS011;7521;51.700;6.874;2023-11-18T09:13:10;32.67;;;20.10;;
14858;SDS011;7521;51.700;6.874;2023-11-18T09:16:17;29.73;;;18.33;;
14858;SDS011;7521;51.700;6.874;2023-11-18T09:19:22;32.97;;;19.10;;
14858;SDS011;7521;51.700;6.874;2023-11-18T09:22:27;31.70;;;18.55;;
14858;SDS011;7521;51.700;6.874;2023-11-18T09:25:33;32.20;;;20.20;;
14858;SDS011;7521;51.700;6.874;2023-11-18T09:28:38;29.98;;;19.90;;
14858;SDS011;7521;51.700;6.874;2023-11-18T09:31:49;35.65;;;20.38;;
14858;SDS011;7521;51.700;6.874;2023-11-18T09:34:54;35.00;;;22.67;;
14858;SDS011;7521;51.700;6.874;2023-11-18T09:38:00;42.67;;;25.90;;
14858;SDS011;7521;51.700;6.874;2023-11-18T09:41:10;39.30;;;23.37;;
14858;SDS011;7521;51.700;6.874;2023-11-18T09:44:16;32.17;;;21.07;;
14858;SDS011;7521;51.700;6.874;2023-11-18T09:47:23;33.70;;;20.33;;
14858;SDS011;7521;51.700;6.874;2023-11-18T09:50:29;31.03;;;20.53;;
14858;SDS011;7521;51.700;6.874;2023-11-18T09:53:37;32.00;;;19.53;;
14858;SDS011;7521;51.700;6.874;2023-11-18T09:56:59;28.73;;;19.17;;
14858;SDS011;7521;51.700;6.874;2023-11-18T10:00:15;26.87;;;17.40;;
14858;SDS011;7521;51.700;6.874;2023-11-18T10:03:37;30.73;;;18.50;;
14858;SDS011;7521;51.700;6.874;2023-11-18T10:06:42;33.07;;;19.87;;
14858;SDS011;7521;51.700;6.874;2023-11-18T10:09:49;26.40;;;17.50;;
14858;SDS011;7521;51.700;6.874;2023-11-18T10:12:54;29.17;;;16.57;;
14858;SDS011;7521;51.700;6.874;2023-11-18T10:16:03;22.63;;;14.83;;
14858;SDS011;7521;51.700;6.874;2023-11-18T10:19:10;25.50;;;15.30;;
14858;SDS011;7521;51.700;6.874;2023-11-18T10:22:26;23.77;;;14.73;;
14858;SDS011;7521;51.700;6.874;2023-11-18T10:25:32;21.73;;;15.20;;
14858;SDS011;7521;51.700;6.874;2023-11-18T10:28:39;22.73;;;14.20;;
14858;SDS011;7521;51.700;6.874;2023-11-18T10:31:45;23.93;;;13.93;;
14858;SDS011;7521;51.700;6.874;2023-11-18T10:34:50;19.47;;;12.87;;
14858;SDS011;7521;51.700;6.874;2023-11-18T10:37:55;21.57;;;12.53;;
14858;SDS011;7521;51.700;6.874;2023-11-18T10:41:00;19.92;;;11.93;;
14858;SDS011;7521;51.700;6.874;2023-11-18T10:44:09;24.07;;;13.67;;
14858;SDS011;7521;51.700;6.874;2023-11-18T10:47:18;19.10;;;12.97;;
14858;SDS011;7521;51.700;6.874;2023-11-18T10:50:25;22.07;;;12.73;;
14858;SDS011;7521;51.700;6.874;2023-11-18T10:53:36;17.80;;;12.10;;
14858;SDS011;7521;51.700;6.874;2023-11-18T10:56:45;20.40;;;13.17;;
14858;SDS011;7521;51.700;6.874;2023-11-18T11:00:03;20.30;;;11.97;;
14858;SDS011;7521;51.700;6.874;2023-11-18T11:03:17;19.60;;;11.80;;
14858;SDS011;7521;51.700;6.874;2023-11-18T11:06:23;18.00;;;11.47;;
14858;SDS011;7521;51.700;6.874;2023-11-18T11:09:28;16.77;;;10.47;;
14858;SDS011;7521;51.700;6.874;2023-11-18T11:12:46;16.83;;;11.47;;
14858;SDS011;7521;51.700;6.874;2023-11-18T11:15:57;25.63;;;12.53;;
14858;SDS011;7521;51.700;6.874;2023-11-18T11:19:03;19.23;;;10.80;;
14858;SDS011;7521;51.700;6.874;2023-11-18T11:22:15;16.17;;;10.27;;
14858;SDS011;7521;51.700;6.874;2023-11-18T11:25:32;19.40;;;10.77;;
14858;SDS011;7521;51.700;6.874;2023-11-18T11:28:44;15.83;;;9.37;;
14858;SDS011;7521;51.700;6.874;2023-11-18T11:31:56;16.73;;;9.63;;
14858;SDS011;7521;51.700;6.874;2023-11-18T11:35:10;18.33;;;9.23;;
14858;SDS011;7521;51.700;6.874;2023-11-18T11:38:24;17.10;;;8.50;;
14858;SDS011;7521;51.700;6.874;2023-11-18T11:41:29;13.00;;;8.63;;
14858;SDS011;7521;51.700;6.874;2023-11-18T11:44:39;12.17;;;8.50;;
14858;SDS011;7521;51.700;6.874;2023-11-18T11:47:48;12.17;;;7.87;;
14858;SDS011;7521;51.700;6.874;2023-11-18T11:51:09;18.23;;;8.13;;
14858;SDS011;7521;51.700;6.874;2023-11-18T11:54:40;14.43;;;8.60;;
14858;SDS011;7521;51.700;6.874;2023-11-18T11:57:51;13.53;;;8.00;;
14858;SDS011;7521;51.700;6.874;2023-11-18T12:01:14;13.27;;;8.00;;
14858;SDS011;7521;51.700;6.874;2023-11-18T12:04:23;14.20;;;8.10;;
14858;SDS011;7521;51.700;6.874;2023-11-18T12:07:33;14.90;;;8.03;;
14858;SDS011;7521;51.700;6.874;2023-11-18T12:10:53;15.60;;;8.37;;
14858;SDS011;7521;51.700;6.874;2023-11-18T12:13:59;12.37;;;7.77;;
14858;SDS011;7521;51.700;6.874;2023-11-18T12:17:14;15.33;;;7.60;;
14858;SDS011;7521;51.700;6.874;2023-11-18T12:20:38;13.97;;;8.13;;
14858;SDS011;7521;51.700;6.874;2023-11-18T12:24:15;13.43;;;8.03;;
14858;SDS011;7521;51.700;6.874;2023-11-18T12:30:44;13.80;;;7.83;;
14858;SDS011;7521;51.700;6.874;2023-11-18T12:34:02;13.87;;;7.73;;
14858;SDS011;7521;51.700;6.874;2023-11-18T12:37:22;13.43;;;8.13;;
14858;SDS011;7521;51.700;6.874;2023-11-18T12:43:49;14.27;;;7.87;;
14858;SDS011;7521;51.700;6.874;2023-11-18T12:47:04;17.67;;;7.83;;
14858;SDS011;7521;51.700;6.874;2023-11-18T12:50:26;12.23;;;6.73;;
14858;SDS011;7521;51.700;6.874;2023-11-18T12:53:33;15.97;;;7.53;;
14858;SDS011;7521;51.700;6.874;2023-11-18T12:56:40;12.17;;;6.67;;
14858;SDS011;7521;51.700;6.874;2023-11-18T12:59:49;10.03;;;6.40;;
14858;SDS011;7521;51.700;6.874;2023-11-18T13:02:55;13.97;;;7.27;;
14858;SDS011;7521;51.700;6.874;2023-11-18T13:06:02;13.67;;;7.53;;
14858;SDS011;7521;51.700;6.874;2023-11-18T13:09:10;17.23;;;8.80;;
14858;SDS011;7521;51.700;6.874;2023-11-18T13:12:16;13.57;;;8.05;;
14858;SDS011;7521;51.700;6.874;2023-11-18T13:15:24;13.03;;;8.00;;
14858;SDS011;7521;51.700;6.874;2023-11-18T13:18:40;14.07;;;7.40;;
14858;SDS011;7521;51.700;6.874;2023-11-18T13:21:46;12.83;;;7.57;;
14858;SDS011;7521;51.700;6.874;2023-11-18T13:24:51;12.60;;;8.10;;
14858;SDS011;7521;51.700;6.874;2023-11-18T13:27:56;14.27;;;8.10;;
14858;SDS011;7521;51.700;6.874;2023-11-18T13:31:01;12.03;;;7.83;;
14858;SDS011;7521;51.700;6.874;2023-11-18T13:34:06;11.07;;;7.20;;
14858;SDS011;7521;51.700;6.874;2023-11-18T13:37:12;13.87;;;6.93;;
14858;SDS011;7521;51.700;6.874;2023-11-18T13:40:21;11.60;;;6.73;;
14858;SDS011;7521;51.700;6.874;2023-11-18T13:43:40;10.17;;;6.30;;
14858;SDS011;7521;51.700;6.874;2023-11-18T13:46:47;13.10;;;6.37;;
14858;SDS011;7521;51.700;6.874;2023-11-18T13:49:53;11.17;;;6.00;;
14858;SDS011;7521;51.700;6.874;2023-11-18T13:52:59;10.97;;;5.50;;
14858;SDS011;7521;51.700;6.874;2023-11-18T13:56:05;11.30;;;5.70;;
14858;SDS011;7521;51.700;6.874;2023-11-18T13:59:11;10.50;;;5.83;;
14858;SDS011;7521;51.700;6.874;2023-11-18T14:02:16;11.35;;;6.47;;
14858;SDS011;7521;51.700;6.874;2023-11-18T14:05:21;12.50;;;5.50;;
14858;SDS011;7521;51.700;6.874;2023-11-18T14:08:27;10.17;;;5.97;;
14858;SDS011;7521;51.700;6.874;2023-11-18T14:11:32;10.70;;;5.05;;
14858;SDS011;7521;51.700;6.874;2023-11-18T14:14:37;9.82;;;5.47;;
14858;SDS011;7521;51.700;6.874;2023-11-18T14:17:42;10.27;;;7.67;;
14858;SDS011;7521;51.700;6.874;2023-11-18T14:20:47;13.73;;;7.45;;
14858;SDS011;7521;51.700;6.874;2023-11-18T14:23:53;10.38;;;6.72;;
14858;SDS011;7521;51.700;6.874;2023-11-18T14:27:01;9.27;;;4.87;;
14858;SDS011;7521;51.700;6.874;2023-11-18T14:30:06;9.23;;;5.50;;
14858;SDS011;7521;51.700;6.874;2023-11-18T14:33:14;9.03;;;5.73;;
14858;SDS011;7521;51.700;6.874;2023-11-18T14:36:19;8.85;;;5.03;;
14858;SDS011;7521;51.700;6.874;2023-11-18T14:39:24;11.52;;;4.93;;
14858;SDS011;7521;51.700;6.874;2023-11-18T14:42:30;9.13;;;4.60;;
14858;SDS011;7521;51.700;6.874;2023-11-18T14:45:35;10.93;;;4.40;;
14858;SDS011;7521;51.700;6.874;2023-11-18T14:48:42;11.40;;;5.30;;
14858;SDS011;7521;51.700;6.874;2023-11-18T14:51:47;8.77;;;5.07;;
14858;SDS011;7521;51.700;6.874;2023-11-18T14:54:52;7.90;;;4.57;;
14858;SDS011;7521;51.700;6.874;2023-11-18T14:57:58;7.40;;;4.20;;
14858;SDS011;7521;51.700;6.874;2023-11-18T15:01:03;11.40;;;4.87;;
14858;SDS011;7521;51.700;6.874;2023-11-18T15:04:08;9.10;;;4.77;;
14858;SDS011;7521;51.700;6.874;2023-11-18T15:07:14;10.63;;;4.97;;
14858;SDS011;7521;51.700;6.874;2023-11-18T15:10:20;11.68;;;4.10;;
14858;SDS011;7521;51.700;6.874;2023-11-18T15:13:25;8.90;;;4.70;;
14858;SDS011;7521;51.700;6.874;2023-11-18T15:16:30;8.40;;;4.80;;
14858;SDS011;7521;51.700;6.874;2023-11-18T15:19:35;9.50;;;4.68;;
14858;SDS011;7521;51.700;6.874;2023-11-18T15:22:40;13.43;;;5.18;;
14858;SDS011;7521;51.700;6.874;2023-11-18T15:25:47;11.43;;;4.70;;
14858;SDS011;7521;51.700;6.874;2023-11-18T15:28:54;7.30;;;4.03;;
14858;SDS011;7521;51.700;6.874;2023-11-18T15:32:01;9.50;;;5.00;;
14858;SDS011;7521;51.700;6.874;2023-11-18T15:35:07;10.37;;;6.13;;
14858;SDS011;7521;51.700;6.874;2023-11-18T15:38:15;7.63;;;4.33;;
14858;SDS011;7521;51.700;6.874;2023-11-18T15:41:21;6.97;;;4.43;;
14858;SDS011;7521;51.700;6.874;2023-11-18T15:44:27;9.05;;;5.10;;
14858;SDS011;7521;51.700;6.874;2023-11-18T15:47:33;8.70;;;4.23;;
14858;SDS011;7521;51.700;6.874;2023-11-18T15:50:40;6.97;;;3.93;;
14858;SDS011;7521;51.700;6.874;2023-11-18T15:53:46;9.17;;;4.10;;
14858;SDS011;7521;51.700;6.874;2023-11-18T15:56:51;7.65;;;4.50;;
14858;SDS011;7521;51.700;6.874;2023-11-18T15:59:56;8.15;;;4.47;;
14858;SDS011;7521;51.700;6.874;2023-11-18T16:03:02;7.60;;;4.60;;
14858;SDS011;7521;51.700;6.874;2023-11-18T16:06:09;8.10;;;4.70;;
14858;SDS011;7521;51.700;6.874;2023-11-18T16:09:15;6.17;;;3.97;;
14858;SDS011;7521;51.700;6.874;2023-11-18T16:12:20;9.38;;;5.07;;
14858;SDS011;7521;51.700;6.874;2023-11-18T16:15:26;9.43;;;4.55;;
14858;SDS011;7521;51.700;6.874;2023-11-18T16:18:31;6.97;;;4.50;;
14858;SDS011;7521;51.700;6.874;2023-11-18T16:21:37;9.23;;;5.05;;
14858;SDS011;7521;51.700;6.874;2023-11-18T16:24:42;8.20;;;4.20;;
14858;SDS011;7521;51.700;6.874;2023-11-18T16:27:48;11.68;;;6.70;;
14858;SDS011;7521;51.700;6.874;2023-11-18T16:30:53;11.63;;;6.63;;
14858;SDS011;7521;51.700;6.874;2023-11-18T16:33:58;7.43;;;5.00;;
14858;SDS011;7521;51.700;6.874;2023-11-18T16:37:03;12.48;;;7.22;;
14858;SDS011;7521;51.700;6.874;2023-11-18T16:40:09;8.23;;;4.80;;
14858;SDS011;7521;51.700;6.874;2023-11-18T16:43:21;8.80;;;5.13;;
14858;SDS011;7521;51.700;6.874;2023-11-18T16:46:26;7.50;;;4.80;;
14858;SDS011;7521;51.700;6.874;2023-11-18T16:49:31;4.57;;;3.47;;
14858;SDS011;7521;51.700;6.874;2023-11-18T16:52:37;5.20;;;3.30;;
14858;SDS011;7521;51.700;6.874;2023-11-18T16:55:45;6.27;;;3.63;;
14858;SDS011;7521;51.700;6.874;2023-11-18T16:58:50;7.40;;;4.10;;
14858;SDS011;7521;51.700;6.874;2023-11-18T17:01:55;4.70;;;3.25;;
14858;SDS011;7521;51.700;6.874;2023-11-18T17:05:01;5.45;;;3.70;;
14858;SDS011;7521;51.700;6.874;2023-11-18T17:08:07;4.60;;;3.70;;
14858;SDS011;7521;51.700;6.874;2023-11-18T17:11:12;4.55;;;3.50;;
14858;SDS011;7521;51.700;6.874;2023-11-18T17:14:17;5.97;;;3.70;;
14858;SDS011;7521;51.700;6.874;2023-11-18T17:17:22;5.47;;;3.50;;
14858;SDS011;7521;51.700;6.874;2023-11-18T17:20:28;3.53;;;2.60;;
14858;SDS011;7521;51.700;6.874;2023-11-18T17:23:33;5.60;;;4.07;;
14858;SDS011;7521;51.700;6.874;2023-11-18T17:26:38;6.68;;;3.75;;
14858;SDS011;7521;51.700;6.874;2023-11-18T17:29:44;6.57;;;5.17;;
14858;SDS011;7521;51.700;6.874;2023-11-18T17:32:49;5.45;;;4.40;;
14858;SDS011;7521;51.700;6.874;2023-11-18T17:35:57;4.80;;;4.17;;
14858;SDS011;7521;51.700;6.874;2023-11-18T17:39:03;4.23;;;3.40;;
14858;SDS011;7521;51.700;6.874;2023-11-18T17:42:09;5.27;;;3.90;;
14858;SDS011;7521;51.700;6.874;2023-11-18T17:45:14;8.13;;;3.92;;
14858;SDS011;7521;51.700;6.874;2023-11-18T17:48:19;3.90;;;3.47;;
14858;SDS011;7521;51.700;6.874;2023-11-18T17:51:25;5.80;;;4.53;;
14858;SDS011;7521;51.700;6.874;2023-11-18T17:54:30;5.87;;;4.90;;
14858;SDS011;7521;51.700;6.874;2023-11-18T17:57:35;8.98;;;7.32;;
14858;SDS011;7521;51.700;6.874;2023-11-18T18:00:43;10.63;;;7.70;;
14858;SDS011;7521;51.700;6.874;2023-11-18T18:03:48;7.90;;;6.27;;
14858;SDS011;7521;51.700;6.874;2023-11-18T18:06:54;11.15;;;8.60;;
14858;SDS011;7521;51.700;6.874;2023-11-18T18:09:59;10.13;;;7.05;;
14858;SDS011;7521;51.700;6.874;2023-11-18T18:13:05;15.97;;;10.53;;
14858;SDS011;7521;51.700;6.874;2023-11-18T18:16:12;12.97;;;9.53;;
14858;SDS011;7521;51.700;6.874;2023-11-18T18:19:19;14.03;;;10.70;;
14858;SDS011;7521;51.700;6.874;2023-11-18T18:22:25;7.53;;;5.43;;
14858;SDS011;7521;51.700;6.874;2023-11-18T18:25:32;12.20;;;9.73;;
14858;SDS011;7521;51.700;6.874;2023-11-18T18:28:37;8.43;;;7.35;;
14858;SDS011;7521;51.700;6.874;2023-11-18T18:31:42;9.17;;;5.70;;
14858;SDS011;7521;51.700;6.874;2023-11-18T18:34:47;8.23;;;5.90;;
14858;SDS011;7521;51.700;6.874;2023-11-18T18:37:52;4.03;;;3.63;;
14858;SDS011;7521;51.700;6.874;2023-11-18T18:40:58;5.35;;;4.05;;
14858;SDS011;7521;51.700;6.874;2023-11-18T18:44:03;4.70;;;3.42;;
14858;SDS011;7521;51.700;6.874;2023-11-18T18:47:08;5.13;;;4.63;;